X  Lukk Metar værinformasjon om luftfart     LEGR F.G.L. Airport Granada-Jaén Airport
Temperatur
22°C Temperatur
4°C Duggpunkt
31% Luftfuktighet



Vind
2 M/S
5 MPT
8 KM/T
4 KNP



300°
VNV
Nåværende forhold

Klart Klart
Trykk 1015.92 (hPa) - 30 (inHg)
Sikt 6 (mil) - 9.7 (km)
Flyplass
Flyplass-kode LEGR

Plassering: F.G.L. Airport Granada-Jaén Airport
Avstand: 138 (km)

Metar:
LEGR 221930Z 30004KT 270V330 CAVOK 22/04 Q1016

Tid: 22-05-2024 21:30 CEST